Hellespontdaring — V7QX9 — position and weather

sailwx.info

Track history (hours):
 
Tides and Currents Weather Stations Pressure Air Temp Water Temp Dewpoint Dewpoint Depression Visibility Wind Speed Wind Dir Waves Ship Positions

Hellespontdaring

Last reported at 2017-Sep-23 19:45 UTC. Time now 2017-Sep-25 06:13 UTC.
Position S 04°56' E 011°33'.

Length 73 m; draft 5.6 m.

Type: Other ship. MMSI: 538090374.

Date/timePositionNaut miles runAvg speedWind from/ knotsBaromVisibWave heightAir tempDewpointWater temp
2017-Sep-23 19:45S 04°56' E 011°33'23 0.5
2017-Sep-22 02:00S 05°13' E 011°18'0 0.4
2017-Sep-22 01:30S 05°13' E 011°18'0 0.0
2017-Sep-22 01:00S 05°13' E 011°18'0 0.0
2017-Sep-22 00:30S 05°13' E 011°18'0 0.0
2017-Sep-22 00:00S 05°13' E 011°18'0 0.0
2017-Sep-21 23:30S 05°13' E 011°18'0 0.0
2017-Sep-21 23:00S 05°13' E 011°18'0 0.0
2017-Sep-21 22:30S 05°13' E 011°18'0 0.0
2017-Sep-21 22:00S 05°13' E 011°18'0 0.0
2017-Sep-21 21:30S 05°13' E 011°18'0 0.0
2017-Sep-21 21:00S 05°13' E 011°18'0 0.0
2017-Sep-21 20:30S 05°13' E 011°18'0 0.0
2017-Sep-21 20:00S 05°13' E 011°18'0 0.0
2017-Sep-21 19:30S 05°13' E 011°18'0 0.0
2017-Sep-21 19:00S 05°13' E 011°18'0 0.1
2017-Sep-21 18:30S 05°13' E 011°18'0 0.9
2017-Sep-21 18:00S 05°13' E 011°18'1 1.7
2017-Sep-21 17:30S 05°14' E 011°19'3 5.9
2017-Sep-21 17:00S 05°16' E 011°20'3 6.6
2017-Sep-21 16:31S 05°17' E 011°23'0 0.8
2017-Sep-21 16:00S 05°17' E 011°23'0 0.0
2017-Sep-21 15:29S 05°17' E 011°23'0 0.2
2017-Sep-21 15:00S 05°17' E 011°23'0 0.3
2017-Sep-21 14:30S 05°17' E 011°24'0 0.6
2017-Sep-21 14:00S 05°18' E 011°23'1 1.9
2017-Sep-21 13:30S 05°17' E 011°24'0 0.4
2017-Sep-21 13:00S 05°17' E 011°24'1 1.4
2017-Sep-21 12:30S 05°18' E 011°23'0 0.3
2017-Sep-21 12:00S 05°18' E 011°23'0 0.5
2017-Sep-21 11:30S 05°18' E 011°23'1 1.4
2017-Sep-21 11:01S 05°17' E 011°23'0 0.1
2017-Sep-21 10:30S 05°17' E 011°23'0 0.0
2017-Sep-21 10:00S 05°17' E 011°23'0 0.5
2017-Sep-21 09:30S 05°17' E 011°23'0 0.5
2017-Sep-21 09:00S 05°17' E 011°23'0 0.0
2017-Sep-21 08:30S 05°17' E 011°23'0 0.0
2017-Sep-21 08:00S 05°17' E 011°23'0 0.1
2017-Sep-21 07:30S 05°17' E 011°23'0 0.4
2017-Sep-21 07:00S 05°17' E 011°23'0 0.5
2017-Sep-21 06:30S 05°17' E 011°24'2 3.5
2017-Sep-21 06:00S 05°17' E 011°22'3 6.3
2017-Sep-21 05:30S 05°15' E 011°19'3 5.4
2017-Sep-21 05:00S 05°13' E 011°18'0 0.2
2017-Sep-21 04:30S 05°13' E 011°18'0 0.6
2017-Sep-21 04:00S 05°13' E 011°18'0 0.4
2017-Sep-21 03:30S 05°13' E 011°18'1 3.0
2017-Sep-21 03:00S 05°12' E 011°19'3 6.5
2017-Sep-21 02:30S 05°10' E 011°21'3 6.8
2017-Sep-21 02:00S 05°07' E 011°24'3 6.7
2017-Sep-21 01:30S 05°05' E 011°26'3 6.5
2017-Sep-21 01:00S 05°03' E 011°28'3 6.5
2017-Sep-21 00:30S 05°00' E 011°30'3 6.4
2017-Sep-21 00:00S 04°58' E 011°33'3 6.4
2017-Sep-20 23:30S 04°56' E 011°35'3 6.3
2017-Sep-20 23:00S 04°54' E 011°38'5 6.1
2017-Sep-20 22:11S 04°50' E 011°41'6 6.3
2017-Sep-20 21:16S 04°47' E 011°46'11 0.5
2017-Sep-20 00:40S 04°54' E 011°38'1 6.2
2017-Sep-20 00:30S 04°55' E 011°37'3 6.3
2017-Sep-20 00:00S 04°57' E 011°35'3 6.2
2017-Sep-19 23:28S 04°60' E 011°33'3 6.3
2017-Sep-19 23:00S 05°02' E 011°32'3 6.1
2017-Sep-19 22:30S 05°05' E 011°30'3 6.1
2017-Sep-19 22:00S 05°07' E 011°28'3 6.1
2017-Sep-19 21:30S 05°10' E 011°26'3 6.0
2017-Sep-19 21:00S 05°12' E 011°25'3 5.7
2017-Sep-19 20:30S 05°15' E 011°23'3 5.5
2017-Sep-19 20:00S 05°17' E 011°23'1 1.4
2017-Sep-19 19:30S 05°18' E 011°23'0 0.3
2017-Sep-19 19:00S 05°18' E 011°23'0 0.6
2017-Sep-19 18:30S 05°18' E 011°23'0 0.6
2017-Sep-19 18:00S 05°19' E 011°23'1 1.4
2017-Sep-19 17:30S 05°18' E 011°23'1 1.7
2017-Sep-19 17:00S 05°17' E 011°24'0 0.6
2017-Sep-19 16:30S 05°17' E 011°23'0 0.0
2017-Sep-19 16:00S 05°17' E 011°23'0 0.0
2017-Sep-19 15:30S 05°17' E 011°23'0 0.0
2017-Sep-19 15:00S 05°17' E 011°23'0 0.1
2017-Sep-19 14:30S 05°17' E 011°23'0 0.1
2017-Sep-19 14:00S 05°17' E 011°23'0 0.0
2017-Sep-19 13:30S 05°17' E 011°23'0 0.0
2017-Sep-19 13:00S 05°17' E 011°23'0 0.1
2017-Sep-19 12:30S 05°17' E 011°23'0 0.1
2017-Sep-19 12:00S 05°17' E 011°23'0 0.2
2017-Sep-19 11:30S 05°17' E 011°23'0 0.1
2017-Sep-19 11:00S 05°17' E 011°24'2 3.8
2017-Sep-19 10:30S 05°16' E 011°22'3 5.0
2017-Sep-19 10:00S 05°15' E 011°20'3 5.1
2017-Sep-19 09:30S 05°13' E 011°18'0 0.8
2017-Sep-19 09:00S 05°13' E 011°18'0 0.0
2017-Sep-19 08:30S 05°13' E 011°18'0 0.0
2017-Sep-19 08:00S 05°13' E 011°18'0 0.0
2017-Sep-19 07:30S 05°13' E 011°18'0 0.0
2017-Sep-19 07:00S 05°13' E 011°18'0 0.0
2017-Sep-19 06:30S 05°13' E 011°18'0 0.1
2017-Sep-19 06:00S 05°13' E 011°18'0 0.7
2017-Sep-19 05:29S 05°13' E 011°18'1 2.0
2017-Sep-19 05:00S 05°13' E 011°17'1 2.5
2017-Sep-19 04:30S 05°14' E 011°16'1 1.3
2017-Sep-19 04:00S 05°15' E 011°16'0 0.6
2017-Sep-19 03:30S 05°15' E 011°16'1 1.5
2017-Sep-19 03:00S 05°14' E 011°16'1 1.6
2017-Sep-19 02:30S 05°14' E 011°17'1 1.7
2017-Sep-19 02:00S 05°13' E 011°18'1 1.6
2017-Sep-19 01:30S 05°13' E 011°18'0 0.1
2017-Sep-19 01:00S 05°13' E 011°18'0 0.1
2017-Sep-19 00:30S 05°13' E 011°18'0 0.0
2017-Sep-19 00:00S 05°13' E 011°18'0 0.0
2017-Sep-18 23:30S 05°13' E 011°18'0 0.0
2017-Sep-18 22:59S 05°13' E 011°18'0 0.0
2017-Sep-18 22:30S 05°13' E 011°18'0 0.1
2017-Sep-18 21:59S 05°13' E 011°18'0 0.1
2017-Sep-18 21:30S 05°13' E 011°18'0 0.0
2017-Sep-18 21:00S 05°13' E 011°18'0 0.0
2017-Sep-18 20:31S 05°13' E 011°18'0 0.0
2017-Sep-18 20:00S 05°13' E 011°18'0 0.0
2017-Sep-18 19:30S 05°13' E 011°18'0 0.0
2017-Sep-18 18:59S 05°13' E 011°18'0 0.0
2017-Sep-18 18:30S 05°13' E 011°18'0 0.0
2017-Sep-18 18:00S 05°13' E 011°18'0 0.0
2017-Sep-18 17:30S 05°13' E 011°18'0 0.0
2017-Sep-18 17:00S 05°13' E 011°18'0 0.0
2017-Sep-18 16:31S 05°13' E 011°18'0 0.0
2017-Sep-18 16:00S 05°13' E 011°18'0 0.1
2017-Sep-18 15:26S 05°13' E 011°18'0 0.1
2017-Sep-18 15:00S 05°13' E 011°18'0 0.0
2017-Sep-18 14:30S 05°13' E 011°18'0 0.1
2017-Sep-18 14:00S 05°13' E 011°18'0 0.4
2017-Sep-18 13:27S 05°13' E 011°18'0 0.0
2017-Sep-18 13:00S 05°13' E 011°18'0 0.0
2017-Sep-18 12:30S 05°13' E 011°18'1 2.7
2017-Sep-18 12:00S 05°13' E 011°19'3 6.4
2017-Sep-18 11:29S 05°12' E 011°22'3 6.7
2017-Sep-18 11:00S 05°10' E 011°24'3 6.5
2017-Sep-18 10:30S 05°08' E 011°27'3 6.5
2017-Sep-18 10:00S 05°06' E 011°30'3 6.4
2017-Sep-18 09:30S 05°04' E 011°32'3 6.4
2017-Sep-18 09:00S 05°02' E 011°35'3 6.5
2017-Sep-18 08:30S 05°00' E 011°37'5 0.3
2017-Sep-17 16:50S 04°56' E 011°36'2 6.9
2017-Sep-17 16:29S 04°57' E 011°34'3 6.8
2017-Sep-17 16:00S 04°60' E 011°32'3 6.8
2017-Sep-17 15:30S 05°02' E 011°29'4 6.9
2017-Sep-17 15:00S 05°04' E 011°27'3 6.9
2017-Sep-17 14:30S 05°06' E 011°24'4 7.3
2017-Sep-17 14:00S 05°09' E 011°21'4 7.2
2017-Sep-17 13:30S 05°11' E 011°19'2 4.2
2017-Sep-17 13:00S 05°13' E 011°17'1 1.7
2017-Sep-17 12:30S 05°13' E 011°17'0 0.4
2017-Sep-17 11:59S 05°13' E 011°17'0 0.3
2017-Sep-17 11:27S 05°13' E 011°17'0 0.2
2017-Sep-17 11:00S 05°13' E 011°17'0 0.4
2017-Sep-17 10:30S 05°13' E 011°17'0 0.4
2017-Sep-17 10:00S 05°13' E 011°18'0 0.3
2017-Sep-17 09:30S 05°13' E 011°18'0 0.4
2017-Sep-17 09:00S 05°13' E 011°18'0 0.5
2017-Sep-17 08:30S 05°13' E 011°18'0 0.6
2017-Sep-17 08:00S 05°13' E 011°19'1 2.0
2017-Sep-17 07:30S 05°13' E 011°20'3 6.3
2017-Sep-17 07:00S 05°16' E 011°22'1 2.9
2017-Sep-17 06:30S 05°17' E 011°22'0 0.2
2017-Sep-17 06:00S 05°17' E 011°22'0 0.4
2017-Sep-17 05:30S 05°17' E 011°22'0 0.4
2017-Sep-17 05:00S 05°17' E 011°23'0 0.5
2017-Sep-17 04:30S 05°17' E 011°23'1 1.7
2017-Sep-17 04:00S 05°16' E 011°23'0 0.6
2017-Sep-17 03:30S 05°16' E 011°23'0 0.3
2017-Sep-17 03:00S 05°16' E 011°23'0 0.3
2017-Sep-17 02:30S 05°16' E 011°23'0 0.3
2017-Sep-17 02:00S 05°16' E 011°23'0 0.2
2017-Sep-17 01:30S 05°16' E 011°23'0 0.1
2017-Sep-17 01:00S 05°16' E 011°23'0 0.1
2017-Sep-17 00:30S 05°16' E 011°23'1 2.8
2017-Sep-17 00:00S 05°15' E 011°23'2 4.7
2017-Sep-16 23:30S 05°13' E 011°24'2 4.8
2017-Sep-16 23:00S 05°10' E 011°25'2 4.8
2017-Sep-16 22:30S 05°08' E 011°26'0 0.5
2017-Sep-16 22:00S 05°08' E 011°26'1 1.3
2017-Sep-16 21:30S 05°09' E 011°26'1 1.5
2017-Sep-16 21:00S 05°10' E 011°26'1 1.5
2017-Sep-16 20:30S 05°11' E 011°26'1 1.5
2017-Sep-16 20:00S 05°11' E 011°26'1 1.6
2017-Sep-16 19:29S 05°12' E 011°27'1 1.6
2017-Sep-16 19:00S 05°13' E 011°27'1 1.5
2017-Sep-16 18:30S 05°14' E 011°27'1 1.5
2017-Sep-16 18:00S 05°14' E 011°27'1 1.4
2017-Sep-16 17:30S 05°15' E 011°27'1 1.4
2017-Sep-16 17:00S 05°16' E 011°27'1 1.3
2017-Sep-16 16:30S 05°16' E 011°27'1 1.4
2017-Sep-16 16:00S 05°17' E 011°28'1 2.5
2017-Sep-16 15:30S 05°18' E 011°27'3 5.7
2017-Sep-16 15:00S 05°17' E 011°24'0 1.0
2017-Sep-16 14:30S 05°16' E 011°24'0 0.2
2017-Sep-16 14:00S 05°16' E 011°24'0 0.4
2017-Sep-16 13:30S 05°16' E 011°23'0 0.4
2017-Sep-16 13:00S 05°16' E 011°23'1 1.3
2017-Sep-16 12:30S 05°17' E 011°23'0 0.3
2017-Sep-16 12:00S 05°17' E 011°23'0 0.4
2017-Sep-16 11:30S 05°17' E 011°23'1 1.2
2017-Sep-16 11:00S 05°17' E 011°23'0 0.3
2017-Sep-16 10:30S 05°17' E 011°23'0 0.8
2017-Sep-16 10:00S 05°18' E 011°23'0 0.8
2017-Sep-16 09:30S 05°17' E 011°23'0 0.0
2017-Sep-16 09:00S 05°17' E 011°23'0 0.2
2017-Sep-16 08:30S 05°17' E 011°23'0 0.1
2017-Sep-16 08:00S 05°17' E 011°23'0 0.0
2017-Sep-16 07:30S 05°17' E 011°23'0 0.2
2017-Sep-16 07:00S 05°17' E 011°23'0 0.1
2017-Sep-16 06:30S 05°17' E 011°23'0 0.0
2017-Sep-16 06:00S 05°17' E 011°23'0 0.0
2017-Sep-16 05:30S 05°17' E 011°23'0 0.0
2017-Sep-16 04:59S 05°17' E 011°23'0 0.0
2017-Sep-16 04:30S 05°17' E 011°23'0 0.0
2017-Sep-16 04:00S 05°17' E 011°23'0 0.0
2017-Sep-16 03:30S 05°17' E 011°23'0 0.0
2017-Sep-16 03:00S 05°17' E 011°23'0 0.0
2017-Sep-16 02:30S 05°17' E 011°23'0 0.0
2017-Sep-16 01:59S 05°17' E 011°23'0 0.1
2017-Sep-16 01:30S 05°17' E 011°23'0 0.4
2017-Sep-16 01:00S 05°17' E 011°23'1 1.5
2017-Sep-16 00:30S 05°18' E 011°23'0 0.4
2017-Sep-16 00:00S 05°18' E 011°23'0 0.4
2017-Sep-15 23:30S 05°18' E 011°23'0 0.1
2017-Sep-15 23:00S 05°18' E 011°23'0 0.3
2017-Sep-15 22:30S 05°17' E 011°23'1 1.2
2017-Sep-15 22:00S 05°17' E 011°24'1 1.5
2017-Sep-15 21:30S 05°17' E 011°24'0 0.9
2017-Sep-15 21:00S 05°17' E 011°23'0 0.3
2017-Sep-15 20:30S 05°17' E 011°23'0 0.0
2017-Sep-15 20:00S 05°17' E 011°23'0 0.1
2017-Sep-15 19:30S 05°17' E 011°23'0 0.5
2017-Sep-15 19:00S 05°17' E 011°23'1 2.2
2017-Sep-15 18:30S 05°18' E 011°23'0 0.2
2017-Sep-15 18:00S 05°18' E 011°22'0 0.4
2017-Sep-15 17:30S 05°17' E 011°23'0 0.9
2017-Sep-15 17:00S 05°18' E 011°23'0 0.5
2017-Sep-15 16:30S 05°18' E 011°22'0 0.5
2017-Sep-15 16:00S 05°18' E 011°23'0 0.4
2017-Sep-15 15:30S 05°18' E 011°23'0 0.4
2017-Sep-15 14:58S 05°18' E 011°23'0 0.5
2017-Sep-15 14:30S 05°18' E 011°23'0 0.4
2017-Sep-15 14:00S 05°17' E 011°23'1 1.8
2017-Sep-15 13:30S 05°17' E 011°23'0 0.8
2017-Sep-15 13:00S 05°17' E 011°23'0 0.0
2017-Sep-15 12:30S 05°17' E 011°23'0 0.0
2017-Sep-15 12:00S 05°17' E 011°23'0 0.5
2017-Sep-15 11:30S 05°17' E 011°23'0 0.2
2017-Sep-15 11:00S 05°17' E 011°23'1 1.2
2017-Sep-15 10:30S 05°17' E 011°23'3 6.2
2017-Sep-15 10:00S 05°19' E 011°25'3 6.7
2017-Sep-15 09:30S 05°22' E 011°27'0 1.0
2017-Sep-15 09:00S 05°23' E 011°27'0 0.1
2017-Sep-15 06:56S 05°23' E 011°27'0 0.4
2017-Sep-15 06:30S 05°23' E 011°27'1 1.4
2017-Sep-15 06:00S 05°22' E 011°27'0 0.1
2017-Sep-15 05:30S 05°22' E 011°27'0 0.2
2017-Sep-15 05:00S 05°22' E 011°27'0 0.3
2017-Sep-15 04:30S 05°22' E 011°27'0 0.8
2017-Sep-15 04:00S 05°22' E 011°27'0 0.8
2017-Sep-15 03:30S 05°22' E 011°27'0 0.7
2017-Sep-15 03:00S 05°22' E 011°27'0 0.4
2017-Sep-15 02:30S 05°22' E 011°27'0 0.5
2017-Sep-15 02:00S 05°22' E 011°27'0 0.3
2017-Sep-15 01:30S 05°22' E 011°27'1 1.3
2017-Sep-15 01:00S 05°22' E 011°27'1 1.3
2017-Sep-15 00:30S 05°23' E 011°27'0 0.6
2017-Sep-15 00:00S 05°23' E 011°27'0 0.1
2017-Sep-14 23:30S 05°23' E 011°27'0 0.1
2017-Sep-14 23:00S 05°23' E 011°27'0 0.1
2017-Sep-14 22:30S 05°23' E 011°27'0 0.5
2017-Sep-14 21:59S 05°23' E 011°28'0 0.5
2017-Sep-14 21:30S 05°23' E 011°28'1 1.1
2017-Sep-14 21:00S 05°22' E 011°27'0 0.7
2017-Sep-14 20:30S 05°22' E 011°27'0 0.3
2017-Sep-14 19:59S 05°22' E 011°27'0 0.1
2017-Sep-14 19:30S 05°22' E 011°27'0 0.6
2017-Sep-14 18:58S 05°22' E 011°27'0 0.2
2017-Sep-14 18:30S 05°22' E 011°27'0 0.5
2017-Sep-14 18:00S 05°22' E 011°27'0 0.4
2017-Sep-14 17:30S 05°22' E 011°27'0 0.3
2017-Sep-14 17:00S 05°23' E 011°27'0 0.2
2017-Sep-14 16:30S 05°23' E 011°27'0 0.7
2017-Sep-14 16:00S 05°23' E 011°27'1 2.0
2017-Sep-14 15:30S 05°23' E 011°26'3 6.5
2017-Sep-14 15:00S 05°21' E 011°24'3 6.5
2017-Sep-14 14:30S 05°19' E 011°22'3 6.3
2017-Sep-14 14:00S 05°16' E 011°20'3 6.3
2017-Sep-14 13:30S 05°13' E 011°18'1 1.3
2017-Sep-14 13:00S 05°13' E 011°18'0 0.0
2017-Sep-14 12:30S 05°13' E 011°18'0 0.0
2017-Sep-14 12:00S 05°13' E 011°18'0 0.0
2017-Sep-14 11:30S 05°13' E 011°18'0 0.0
2017-Sep-14 11:00S 05°13' E 011°18'0 0.0
2017-Sep-14 10:30S 05°13' E 011°18'0 0.0
2017-Sep-14 10:00S 05°13' E 011°18'0 0.0
2017-Sep-14 09:30S 05°13' E 011°18'0 0.0
2017-Sep-14 09:00S 05°13' E 011°18'0 0.1
2017-Sep-14 08:30S 05°13' E 011°18'0 0.0
2017-Sep-14 07:59S 05°13' E 011°18'0 0.0
2017-Sep-14 07:30S 05°13' E 011°18'0 0.0
2017-Sep-14 07:00S 05°13' E 011°18'0 0.0
2017-Sep-14 06:30S 05°13' E 011°18'0 0.0
2017-Sep-14 06:00S 05°13' E 011°18'0 0.3
2017-Sep-14 05:30S 05°13' E 011°18'0 0.3
2017-Sep-14 05:00S 05°13' E 011°18'0 0.8
2017-Sep-14 04:30S 05°13' E 011°18'3 6.0
2017-Sep-14 04:00S 05°15' E 011°20'3 6.4
2017-Sep-14 03:30S 05°16' E 011°23'1 1.8
2017-Sep-14 03:00S 05°17' E 011°23'0 0.0
2017-Sep-14 02:30S 05°17' E 011°23'0 0.2
2017-Sep-14 02:00S 05°17' E 011°23'0 0.4
2017-Sep-14 01:30S 05°17' E 011°23'1 1.4
2017-Sep-14 01:00S 05°16' E 011°24'3 6.8
2017-Sep-14 00:30S 05°13' E 011°25'3 6.7
2017-Sep-14 00:00S 05°10' E 011°26'3 6.7
2017-Sep-13 23:30S 05°07' E 011°28'3 6.8
2017-Sep-13 23:00S 05°04' E 011°29'3 6.7
2017-Sep-13 22:30S 05°01' E 011°31'3 6.8
2017-Sep-13 22:00S 04°58' E 011°33'4 6.7
2017-Sep-13 21:21S 04°55' E 011°35'  
Track history (hours):
 
Tides and Currents Weather Stations Pressure Air Temp Water Temp Dewpoint Dewpoint Depression Visibility Wind Speed Wind Dir Waves Ship Positions

Hellespontdaring

Last reported at 2017-Sep-23 19:45 UTC. Time now 2017-Sep-25 06:13 UTC.
Position S 04°56' E 011°33'.

Length 73 m; draft 5.6 m.

Type: Other ship. MMSI: 538090374.

Date/timePositionNaut miles runAvg speedWind from/ knotsBaromVisibWave heightAir tempDewpointWater temp
2017-Sep-23 19:45S 04°56' E 011°33'23 0.5
2017-Sep-22 02:00S 05°13' E 011°18'0 0.4
2017-Sep-22 01:30S 05°13' E 011°18'0 0.0
2017-Sep-22 01:00S 05°13' E 011°18'0 0.0
2017-Sep-22 00:30S 05°13' E 011°18'0 0.0
2017-Sep-22 00:00S 05°13' E 011°18'0 0.0
2017-Sep-21 23:30S 05°13' E 011°18'0 0.0
2017-Sep-21 23:00S 05°13' E 011°18'0 0.0
2017-Sep-21 22:30S 05°13' E 011°18'0 0.0
2017-Sep-21 22:00S 05°13' E 011°18'0 0.0
2017-Sep-21 21:30S 05°13' E 011°18'0 0.0
2017-Sep-21 21:00S 05°13' E 011°18'0 0.0
2017-Sep-21 20:30S 05°13' E 011°18'0 0.0
2017-Sep-21 20:00S 05°13' E 011°18'0 0.0
2017-Sep-21 19:30S 05°13' E 011°18'0 0.0
2017-Sep-21 19:00S 05°13' E 011°18'0 0.1
2017-Sep-21 18:30S 05°13' E 011°18'0 0.9
2017-Sep-21 18:00S 05°13' E 011°18'1 1.7
2017-Sep-21 17:30S 05°14' E 011°19'3 5.9
2017-Sep-21 17:00S 05°16' E 011°20'3 6.6
2017-Sep-21 16:31S 05°17' E 011°23'0 0.8
2017-Sep-21 16:00S 05°17' E 011°23'0 0.0
2017-Sep-21 15:29S 05°17' E 011°23'0 0.2
2017-Sep-21 15:00S 05°17' E 011°23'0 0.3
2017-Sep-21 14:30S 05°17' E 011°24'0 0.6
2017-Sep-21 14:00S 05°18' E 011°23'1 1.9
2017-Sep-21 13:30S 05°17' E 011°24'0 0.4
2017-Sep-21 13:00S 05°17' E 011°24'1 1.4
2017-Sep-21 12:30S 05°18' E 011°23'0 0.3
2017-Sep-21 12:00S 05°18' E 011°23'0 0.5
2017-Sep-21 11:30S 05°18' E 011°23'1 1.4
2017-Sep-21 11:01S 05°17' E 011°23'0 0.1
2017-Sep-21 10:30S 05°17' E 011°23'0 0.0
2017-Sep-21 10:00S 05°17' E 011°23'0 0.5
2017-Sep-21 09:30S 05°17' E 011°23'0 0.5
2017-Sep-21 09:00S 05°17' E 011°23'0 0.0
2017-Sep-21 08:30S 05°17' E 011°23'0 0.0
2017-Sep-21 08:00S 05°17' E 011°23'0 0.1
2017-Sep-21 07:30S 05°17' E 011°23'0 0.4
2017-Sep-21 07:00S 05°17' E 011°23'0 0.5
2017-Sep-21 06:30S 05°17' E 011°24'2 3.5
2017-Sep-21 06:00S 05°17' E 011°22'3 6.3
2017-Sep-21 05:30S 05°15' E 011°19'3 5.4
2017-Sep-21 05:00S 05°13' E 011°18'0 0.2
2017-Sep-21 04:30S 05°13' E 011°18'0 0.6
2017-Sep-21 04:00S 05°13' E 011°18'0 0.4
2017-Sep-21 03:30S 05°13' E 011°18'1 3.0
2017-Sep-21 03:00S 05°12' E 011°19'3 6.5
2017-Sep-21 02:30S 05°10' E 011°21'3 6.8
2017-Sep-21 02:00S 05°07' E 011°24'3 6.7
2017-Sep-21 01:30S 05°05' E 011°26'3 6.5
2017-Sep-21 01:00S 05°03' E 011°28'3 6.5
2017-Sep-21 00:30S 05°00' E 011°30'3 6.4
2017-Sep-21 00:00S 04°58' E 011°33'3 6.4
2017-Sep-20 23:30S 04°56' E 011°35'3 6.3
2017-Sep-20 23:00S 04°54' E 011°38'5 6.1
2017-Sep-20 22:11S 04°50' E 011°41'6 6.3
2017-Sep-20 21:16S 04°47' E 011°46'11 0.5
2017-Sep-20 00:40S 04°54' E 011°38'1 6.2
2017-Sep-20 00:30S 04°55' E 011°37'3 6.3
2017-Sep-20 00:00S 04°57' E 011°35'3 6.2
2017-Sep-19 23:28S 04°60' E 011°33'3 6.3
2017-Sep-19 23:00S 05°02' E 011°32'3 6.1
2017-Sep-19 22:30S 05°05' E 011°30'3 6.1
2017-Sep-19 22:00S 05°07' E 011°28'3 6.1
2017-Sep-19 21:30S 05°10' E 011°26'3 6.0
2017-Sep-19 21:00S 05°12' E 011°25'3 5.7
2017-Sep-19 20:30S 05°15' E 011°23'3 5.5
2017-Sep-19 20:00S 05°17' E 011°23'1 1.4
2017-Sep-19 19:30S 05°18' E 011°23'0 0.3
2017-Sep-19 19:00S 05°18' E 011°23'0 0.6
2017-Sep-19 18:30S 05°18' E 011°23'0 0.6
2017-Sep-19 18:00S 05°19' E 011°23'1 1.4
2017-Sep-19 17:30S 05°18' E 011°23'1 1.7
2017-Sep-19 17:00S 05°17' E 011°24'0 0.6
2017-Sep-19 16:30S 05°17' E 011°23'0 0.0
2017-Sep-19 16:00S 05°17' E 011°23'0 0.0
2017-Sep-19 15:30S 05°17' E 011°23'0 0.0
2017-Sep-19 15:00S 05°17' E 011°23'0 0.1
2017-Sep-19 14:30S 05°17' E 011°23'0 0.1
2017-Sep-19 14:00S 05°17' E 011°23'0 0.0
2017-Sep-19 13:30S 05°17' E 011°23'0 0.0
2017-Sep-19 13:00S 05°17' E 011°23'0 0.1
2017-Sep-19 12:30S 05°17' E 011°23'0 0.1
2017-Sep-19 12:00S 05°17' E 011°23'0 0.2
2017-Sep-19 11:30S 05°17' E 011°23'0 0.1
2017-Sep-19 11:00S 05°17' E 011°24'2 3.8
2017-Sep-19 10:30S 05°16' E 011°22'3 5.0
2017-Sep-19 10:00S 05°15' E 011°20'3 5.1
2017-Sep-19 09:30S 05°13' E 011°18'0 0.8
2017-Sep-19 09:00S 05°13' E 011°18'0 0.0
2017-Sep-19 08:30S 05°13' E 011°18'0 0.0
2017-Sep-19 08:00S 05°13' E 011°18'0 0.0
2017-Sep-19 07:30S 05°13' E 011°18'0 0.0
2017-Sep-19 07:00S 05°13' E 011°18'0 0.0
2017-Sep-19 06:30S 05°13' E 011°18'0 0.1
2017-Sep-19 06:00S 05°13' E 011°18'0 0.7
2017-Sep-19 05:29S 05°13' E 011°18'1 2.0
2017-Sep-19 05:00S 05°13' E 011°17'1 2.5
2017-Sep-19 04:30S 05°14' E 011°16'1 1.3
2017-Sep-19 04:00S 05°15' E 011°16'0 0.6
2017-Sep-19 03:30S 05°15' E 011°16'1 1.5
2017-Sep-19 03:00S 05°14' E 011°16'1 1.6
2017-Sep-19 02:30S 05°14' E 011°17'1 1.7
2017-Sep-19 02:00S 05°13' E 011°18'1 1.6
2017-Sep-19 01:30S 05°13' E 011°18'0 0.1
2017-Sep-19 01:00S 05°13' E 011°18'0 0.1
2017-Sep-19 00:30S 05°13' E 011°18'0 0.0
2017-Sep-19 00:00S 05°13' E 011°18'0 0.0
2017-Sep-18 23:30S 05°13' E 011°18'0 0.0
2017-Sep-18 22:59S 05°13' E 011°18'0 0.0
2017-Sep-18 22:30S 05°13' E 011°18'0 0.1
2017-Sep-18 21:59S 05°13' E 011°18'0 0.1
2017-Sep-18 21:30S 05°13' E 011°18'0 0.0
2017-Sep-18 21:00S 05°13' E 011°18'0 0.0
2017-Sep-18 20:31S 05°13' E 011°18'0 0.0
2017-Sep-18 20:00S 05°13' E 011°18'0 0.0
2017-Sep-18 19:30S 05°13' E 011°18'0 0.0
2017-Sep-18 18:59S 05°13' E 011°18'0 0.0
2017-Sep-18 18:30S 05°13' E 011°18'0 0.0
2017-Sep-18 18:00S 05°13' E 011°18'0 0.0
2017-Sep-18 17:30S 05°13' E 011°18'0 0.0
2017-Sep-18 17:00S 05°13' E 011°18'0 0.0
2017-Sep-18 16:31S 05°13' E 011°18'0 0.0
2017-Sep-18 16:00S 05°13' E 011°18'0 0.1
2017-Sep-18 15:26S 05°13' E 011°18'0 0.1
2017-Sep-18 15:00S 05°13' E 011°18'0 0.0
2017-Sep-18 14:30S 05°13' E 011°18'0 0.1
2017-Sep-18 14:00S 05°13' E 011°18'0 0.4
2017-Sep-18 13:27S 05°13' E 011°18'0 0.0
2017-Sep-18 13:00S 05°13' E 011°18'0 0.0
2017-Sep-18 12:30S 05°13' E 011°18'1 2.7
2017-Sep-18 12:00S 05°13' E 011°19'3 6.4
2017-Sep-18 11:29S 05°12' E 011°22'3 6.7
2017-Sep-18 11:00S 05°10' E 011°24'3 6.5
2017-Sep-18 10:30S 05°08' E 011°27'3 6.5
2017-Sep-18 10:00S 05°06' E 011°30'3 6.4
2017-Sep-18 09:30S 05°04' E 011°32'3 6.4
2017-Sep-18 09:00S 05°02' E 011°35'3 6.5
2017-Sep-18 08:30S 05°00' E 011°37'5 0.3
2017-Sep-17 16:50S 04°56' E 011°36'2 6.9
2017-Sep-17 16:29S 04°57' E 011°34'3 6.8
2017-Sep-17 16:00S 04°60' E 011°32'3 6.8
2017-Sep-17 15:30S 05°02' E 011°29'4 6.9
2017-Sep-17 15:00S 05°04' E 011°27'3 6.9
2017-Sep-17 14:30S 05°06' E 011°24'4 7.3
2017-Sep-17 14:00S 05°09' E 011°21'4 7.2
2017-Sep-17 13:30S 05°11' E 011°19'2 4.2
2017-Sep-17 13:00S 05°13' E 011°17'1 1.7
2017-Sep-17 12:30S 05°13' E 011°17'0 0.4
2017-Sep-17 11:59S 05°13' E 011°17'0 0.3
2017-Sep-17 11:27S 05°13' E 011°17'0 0.2
2017-Sep-17 11:00S 05°13' E 011°17'0 0.4
2017-Sep-17 10:30S 05°13' E 011°17'0 0.4
2017-Sep-17 10:00S 05°13' E 011°18'0 0.3
2017-Sep-17 09:30S 05°13' E 011°18'0 0.4
2017-Sep-17 09:00S 05°13' E 011°18'0 0.5
2017-Sep-17 08:30S 05°13' E 011°18'0 0.6
2017-Sep-17 08:00S 05°13' E 011°19'1 2.0
2017-Sep-17 07:30S 05°13' E 011°20'3 6.3
2017-Sep-17 07:00S 05°16' E 011°22'1 2.9
2017-Sep-17 06:30S 05°17' E 011°22'0 0.2
2017-Sep-17 06:00S 05°17' E 011°22'0 0.4
2017-Sep-17 05:30S 05°17' E 011°22'0 0.4
2017-Sep-17 05:00S 05°17' E 011°23'0 0.5
2017-Sep-17 04:30S 05°17' E 011°23'1 1.7
2017-Sep-17 04:00S 05°16' E 011°23'0 0.6
2017-Sep-17 03:30S 05°16' E 011°23'0 0.3
2017-Sep-17 03:00S 05°16' E 011°23'0 0.3
2017-Sep-17 02:30S 05°16' E 011°23'0 0.3
2017-Sep-17 02:00S 05°16' E 011°23'0 0.2
2017-Sep-17 01:30S 05°16' E 011°23'0 0.1
2017-Sep-17 01:00S 05°16' E 011°23'0 0.1
2017-Sep-17 00:30S 05°16' E 011°23'1 2.8
2017-Sep-17 00:00S 05°15' E 011°23'2 4.7
2017-Sep-16 23:30S 05°13' E 011°24'2 4.8
2017-Sep-16 23:00S 05°10' E 011°25'2 4.8
2017-Sep-16 22:30S 05°08' E 011°26'0 0.5
2017-Sep-16 22:00S 05°08' E 011°26'1 1.3
2017-Sep-16 21:30S 05°09' E 011°26'1 1.5
2017-Sep-16 21:00S 05°10' E 011°26'1 1.5
2017-Sep-16 20:30S 05°11' E 011°26'1 1.5
2017-Sep-16 20:00S 05°11' E 011°26'1 1.6
2017-Sep-16 19:29S 05°12' E 011°27'1 1.6
2017-Sep-16 19:00S 05°13' E 011°27'1 1.5
2017-Sep-16 18:30S 05°14' E 011°27'1 1.5
2017-Sep-16 18:00S 05°14' E 011°27'1 1.4
2017-Sep-16 17:30S 05°15' E 011°27'1 1.4
2017-Sep-16 17:00S 05°16' E 011°27'1 1.3
2017-Sep-16 16:30S 05°16' E 011°27'1 1.4
2017-Sep-16 16:00S 05°17' E 011°28'1 2.5
2017-Sep-16 15:30S 05°18' E 011°27'3 5.7
2017-Sep-16 15:00S 05°17' E 011°24'0 1.0
2017-Sep-16 14:30S 05°16' E 011°24'0 0.2
2017-Sep-16 14:00S 05°16' E 011°24'0 0.4
2017-Sep-16 13:30S 05°16' E 011°23'0 0.4
2017-Sep-16 13:00S 05°16' E 011°23'1 1.3
2017-Sep-16 12:30S 05°17' E 011°23'0 0.3
2017-Sep-16 12:00S 05°17' E 011°23'0 0.4
2017-Sep-16 11:30S 05°17' E 011°23'1 1.2
2017-Sep-16 11:00S 05°17' E 011°23'0 0.3
2017-Sep-16 10:30S 05°17' E 011°23'0 0.8
2017-Sep-16 10:00S 05°18' E 011°23'0 0.8
2017-Sep-16 09:30S 05°17' E 011°23'0 0.0
2017-Sep-16 09:00S 05°17' E 011°23'0 0.2
2017-Sep-16 08:30S 05°17' E 011°23'0 0.1
2017-Sep-16 08:00S 05°17' E 011°23'0 0.0
2017-Sep-16 07:30S 05°17' E 011°23'0 0.2
2017-Sep-16 07:00S 05°17' E 011°23'0 0.1
2017-Sep-16 06:30S 05°17' E 011°23'0 0.0
2017-Sep-16 06:00S 05°17' E 011°23'0 0.0
2017-Sep-16 05:30S 05°17' E 011°23'0 0.0
2017-Sep-16 04:59S 05°17' E 011°23'0 0.0
2017-Sep-16 04:30S 05°17' E 011°23'0 0.0
2017-Sep-16 04:00S 05°17' E 011°23'0 0.0
2017-Sep-16 03:30S 05°17' E 011°23'0 0.0
2017-Sep-16 03:00S 05°17' E 011°23'0 0.0
2017-Sep-16 02:30S 05°17' E 011°23'0 0.0
2017-Sep-16 01:59S 05°17' E 011°23'0 0.1
2017-Sep-16 01:30S 05°17' E 011°23'0 0.4
2017-Sep-16 01:00S 05°17' E 011°23'1 1.5
2017-Sep-16 00:30S 05°18' E 011°23'0 0.4
2017-Sep-16 00:00S 05°18' E 011°23'0 0.4
2017-Sep-15 23:30S 05°18' E 011°23'0 0.1
2017-Sep-15 23:00S 05°18' E 011°23'0 0.3
2017-Sep-15 22:30S 05°17' E 011°23'1 1.2
2017-Sep-15 22:00S 05°17' E 011°24'1 1.5
2017-Sep-15 21:30S 05°17' E 011°24'0 0.9
2017-Sep-15 21:00S 05°17' E 011°23'0 0.3
2017-Sep-15 20:30S 05°17' E 011°23'0 0.0
2017-Sep-15 20:00S 05°17' E 011°23'0 0.1
2017-Sep-15 19:30S 05°17' E 011°23'0 0.5
2017-Sep-15 19:00S 05°17' E 011°23'1 2.2
2017-Sep-15 18:30S 05°18' E 011°23'0 0.2
2017-Sep-15 18:00S 05°18' E 011°22'0 0.4
2017-Sep-15 17:30S 05°17' E 011°23'0 0.9
2017-Sep-15 17:00S 05°18' E 011°23'0 0.5
2017-Sep-15 16:30S 05°18' E 011°22'0 0.5
2017-Sep-15 16:00S 05°18' E 011°23'0 0.4
2017-Sep-15 15:30S 05°18' E 011°23'0 0.4
2017-Sep-15 14:58S 05°18' E 011°23'0 0.5
2017-Sep-15 14:30S 05°18' E 011°23'0 0.4
2017-Sep-15 14:00S 05°17' E 011°23'1 1.8
2017-Sep-15 13:30S 05°17' E 011°23'0 0.8
2017-Sep-15 13:00S 05°17' E 011°23'0 0.0
2017-Sep-15 12:30S 05°17' E 011°23'0 0.0
2017-Sep-15 12:00S 05°17' E 011°23'0 0.5
2017-Sep-15 11:30S 05°17' E 011°23'0 0.2
2017-Sep-15 11:00S 05°17' E 011°23'1 1.2
2017-Sep-15 10:30S 05°17' E 011°23'3 6.2
2017-Sep-15 10:00S 05°19' E 011°25'3 6.7
2017-Sep-15 09:30S 05°22' E 011°27'0 1.0
2017-Sep-15 09:00S 05°23' E 011°27'0 0.1
2017-Sep-15 06:56S 05°23' E 011°27'0 0.4
2017-Sep-15 06:30S 05°23' E 011°27'1 1.4
2017-Sep-15 06:00S 05°22' E 011°27'0 0.1
2017-Sep-15 05:30S 05°22' E 011°27'0 0.2
2017-Sep-15 05:00S 05°22' E 011°27'0 0.3
2017-Sep-15 04:30S 05°22' E 011°27'0 0.8
2017-Sep-15 04:00S 05°22' E 011°27'0 0.8
2017-Sep-15 03:30S 05°22' E 011°27'0 0.7
2017-Sep-15 03:00S 05°22' E 011°27'0 0.4
2017-Sep-15 02:30S 05°22' E 011°27'0 0.5
2017-Sep-15 02:00S 05°22' E 011°27'0 0.3
2017-Sep-15 01:30S 05°22' E 011°27'1 1.3
2017-Sep-15 01:00S 05°22' E 011°27'1 1.3
2017-Sep-15 00:30S 05°23' E 011°27'0 0.6
2017-Sep-15 00:00S 05°23' E 011°27'0 0.1
2017-Sep-14 23:30S 05°23' E 011°27'0 0.1
2017-Sep-14 23:00S 05°23' E 011°27'0 0.1
2017-Sep-14 22:30S 05°23' E 011°27'0 0.5
2017-Sep-14 21:59S 05°23' E 011°28'0 0.5
2017-Sep-14 21:30S 05°23' E 011°28'1 1.1
2017-Sep-14 21:00S 05°22' E 011°27'0 0.7
2017-Sep-14 20:30S 05°22' E 011°27'0 0.3
2017-Sep-14 19:59S 05°22' E 011°27'0 0.1
2017-Sep-14 19:30S 05°22' E 011°27'0 0.6
2017-Sep-14 18:58S 05°22' E 011°27'0 0.2
2017-Sep-14 18:30S 05°22' E 011°27'0 0.5
2017-Sep-14 18:00S 05°22' E 011°27'0 0.4
2017-Sep-14 17:30S 05°22' E 011°27'0 0.3
2017-Sep-14 17:00S 05°23' E 011°27'0 0.2
2017-Sep-14 16:30S 05°23' E 011°27'0 0.7
2017-Sep-14 16:00S 05°23' E 011°27'1 2.0
2017-Sep-14 15:30S 05°23' E 011°26'3 6.5
2017-Sep-14 15:00S 05°21' E 011°24'3 6.5
2017-Sep-14 14:30S 05°19' E 011°22'3 6.3
2017-Sep-14 14:00S 05°16' E 011°20'3 6.3
2017-Sep-14 13:30S 05°13' E 011°18'1 1.3
2017-Sep-14 13:00S 05°13' E 011°18'0 0.0
2017-Sep-14 12:30S 05°13' E 011°18'0 0.0
2017-Sep-14 12:00S 05°13' E 011°18'0 0.0
2017-Sep-14 11:30S 05°13' E 011°18'0 0.0
2017-Sep-14 11:00S 05°13' E 011°18'0 0.0
2017-Sep-14 10:30S 05°13' E 011°18'0 0.0
2017-Sep-14 10:00S 05°13' E 011°18'0 0.0
2017-Sep-14 09:30S 05°13' E 011°18'0 0.0
2017-Sep-14 09:00S 05°13' E 011°18'0 0.1
2017-Sep-14 08:30S 05°13' E 011°18'0 0.0
2017-Sep-14 07:59S 05°13' E 011°18'0 0.0
2017-Sep-14 07:30S 05°13' E 011°18'0 0.0
2017-Sep-14 07:00S 05°13' E 011°18'0 0.0
2017-Sep-14 06:30S 05°13' E 011°18'0 0.0
2017-Sep-14 06:00S 05°13' E 011°18'0 0.3
2017-Sep-14 05:30S 05°13' E 011°18'0 0.3
2017-Sep-14 05:00S 05°13' E 011°18'0 0.8
2017-Sep-14 04:30S 05°13' E 011°18'3 6.0
2017-Sep-14 04:00S 05°15' E 011°20'3 6.4
2017-Sep-14 03:30S 05°16' E 011°23'1 1.8
2017-Sep-14 03:00S 05°17' E 011°23'0 0.0
2017-Sep-14 02:30S 05°17' E 011°23'0 0.2
2017-Sep-14 02:00S 05°17' E 011°23'0 0.4
2017-Sep-14 01:30S 05°17' E 011°23'1 1.4
2017-Sep-14 01:00S 05°16' E 011°24'3 6.8
2017-Sep-14 00:30S 05°13' E 011°25'3 6.7
2017-Sep-14 00:00S 05°10' E 011°26'3 6.7
2017-Sep-13 23:30S 05°07' E 011°28'3 6.8
2017-Sep-13 23:00S 05°04' E 011°29'3 6.7
2017-Sep-13 22:30S 05°01' E 011°31'3 6.8
2017-Sep-13 22:00S 04°58' E 011°33'4 6.7
2017-Sep-13 21:21S 04°55' E 011°35'  

Dump ship's entire track history